createdAt,value
2022-11-13T00:01:17.587Z,91.80
2022-11-13T00:03:45.517Z,94.70
2022-11-13T00:06:14.550Z,96.10
2022-11-13T00:08:43.001Z,96.60
2022-11-13T00:11:14.770Z,97.40
2022-11-13T00:13:43.786Z,98.00
2022-11-13T00:16:13.550Z,98.20
2022-11-13T00:18:41.381Z,98.00
2022-11-13T00:21:10.614Z,98.10
2022-11-13T00:23:38.891Z,98.10
2022-11-13T00:26:07.881Z,98.30
2022-11-13T00:28:37.138Z,98.20
2022-11-13T00:31:06.709Z,98.40
2022-11-13T00:36:26.238Z,98.90
2022-11-13T00:38:55.027Z,99.30
2022-11-13T00:41:22.918Z,99.30
2022-11-13T00:43:52.489Z,98.50
2022-11-13T00:46:20.987Z,96.80
2022-11-13T00:48:48.764Z,96.30
2022-11-13T00:51:16.611Z,96.00
2022-11-13T00:53:44.374Z,96.80
2022-11-13T00:56:12.415Z,96.70
2022-11-13T00:58:40.223Z,96.80
2022-11-13T01:01:11.916Z,97.20
2022-11-13T01:03:40.053Z,97.80
2022-11-13T01:06:12.868Z,98.80
2022-11-13T01:08:41.228Z,99.90
2022-11-13T01:11:10.723Z,99.90
2022-11-13T01:13:38.850Z,99.90
2022-11-13T01:16:10.251Z,99.90
2022-11-13T01:18:38.496Z,99.90
2022-11-13T01:21:07.875Z,99.90
2022-11-13T01:23:36.302Z,99.90
2022-11-13T01:26:09.541Z,99.90
2022-11-13T01:28:37.473Z,99.90
2022-11-13T01:31:07.201Z,99.90
2022-11-13T01:33:36.313Z,99.90
2022-11-13T01:36:06.503Z,99.90
2022-11-13T01:38:36.865Z,99.90
2022-11-13T01:41:05.724Z,99.90
2022-11-13T01:43:35.138Z,99.90
2022-11-13T01:46:21.064Z,99.90
2022-11-13T01:48:53.734Z,99.90
2022-11-13T01:51:28.036Z,99.90
2022-11-13T01:53:56.767Z,99.90
2022-11-13T01:56:25.006Z,99.90
2022-11-13T01:58:55.761Z,99.90
2022-11-13T02:01:23.747Z,99.90
2022-11-13T02:03:52.931Z,99.90
2022-11-13T02:06:21.451Z,99.90
2022-11-13T02:08:51.711Z,99.90
2022-11-13T02:11:20.962Z,99.90
2022-11-13T02:13:49.065Z,99.90
2022-11-13T02:16:18.636Z,99.90
2022-11-13T02:18:46.715Z,99.90
2022-11-13T02:21:26.613Z,99.90
2022-11-13T02:24:01.172Z,99.90
2022-11-13T02:26:32.436Z,99.90
2022-11-13T02:29:00.205Z,99.90
2022-11-13T02:31:28.010Z,99.90
2022-11-13T02:33:55.978Z,99.90
2022-11-13T02:36:26.335Z,99.90
2022-11-13T02:38:56.018Z,99.90
2022-11-13T02:41:23.746Z,99.90
2022-11-13T02:43:52.909Z,99.90
2022-11-13T02:46:20.705Z,99.90
2022-11-13T02:48:48.452Z,99.90
2022-11-13T02:51:16.240Z,99.90
2022-11-13T02:53:44.063Z,99.90
2022-11-13T02:56:11.833Z,99.90
2022-11-13T02:58:39.610Z,99.90
2022-11-13T03:01:08.741Z,99.90
2022-11-13T03:06:24.624Z,99.90
2022-11-13T03:08:52.435Z,99.90
2022-11-13T03:11:20.179Z,99.90
2022-11-13T03:13:47.963Z,99.90
2022-11-13T03:16:17.941Z,99.90
2022-11-13T03:18:45.782Z,99.90
2022-11-13T03:21:15.249Z,99.90
2022-11-13T03:23:44.914Z,99.90
2022-11-13T03:26:18.514Z,99.90
2022-11-13T03:28:46.561Z,99.90
2022-11-13T03:31:14.537Z,99.90
2022-11-13T03:33:43.911Z,99.90
2022-11-13T03:36:11.676Z,99.90
2022-11-13T03:38:39.463Z,99.90
2022-11-13T03:41:07.248Z,99.90
2022-11-13T03:43:34.998Z,99.90
2022-11-13T03:46:02.811Z,99.90
2022-11-13T03:48:30.887Z,99.90
2022-11-13T03:51:00.201Z,99.90
2022-11-13T03:53:27.964Z,99.90
2022-11-13T03:55:55.723Z,99.90
2022-11-13T03:58:23.521Z,99.90
2022-11-13T04:00:52.123Z,99.90
2022-11-13T04:03:20.044Z,99.90
2022-11-13T04:05:49.354Z,99.90
2022-11-13T04:08:19.175Z,99.90
2022-11-13T04:10:47.377Z,99.90
2022-11-13T04:13:15.187Z,99.90
2022-11-13T04:15:43.073Z,99.90
2022-11-13T04:18:11.652Z,99.90
2022-11-13T04:20:39.442Z,99.90
2022-11-13T04:23:12.477Z,99.90
2022-11-13T04:25:41.625Z,99.90
2022-11-13T04:28:10.496Z,99.90
2022-11-13T04:30:38.456Z,99.90
2022-11-13T04:33:06.930Z,99.90
2022-11-13T04:35:35.442Z,99.90
2022-11-13T04:38:03.195Z,99.90
2022-11-13T04:40:31.009Z,99.90
2022-11-13T04:42:59.163Z,99.90
2022-11-13T04:45:27.585Z,99.90
2022-11-13T04:47:55.634Z,99.90
2022-11-13T04:50:23.563Z,99.90
2022-11-13T04:52:51.395Z,99.90
2022-11-13T04:55:19.381Z,99.90
2022-11-13T04:57:47.269Z,99.90
2022-11-13T05:00:17.663Z,99.90
2022-11-13T05:02:45.459Z,99.90
2022-11-13T05:05:13.189Z,99.90
2022-11-13T05:07:42.438Z,99.90
2022-11-13T05:10:10.541Z,99.90
2022-11-13T05:12:38.309Z,99.90
2022-11-13T05:15:07.602Z,99.90
2022-11-13T05:17:36.686Z,99.90
2022-11-13T05:20:05.375Z,99.90
2022-11-13T05:22:33.134Z,99.90
2022-11-13T05:25:00.865Z,99.90
2022-11-13T05:27:28.609Z,99.90
2022-11-13T05:29:56.364Z,99.90
2022-11-13T05:32:24.140Z,99.90
2022-11-13T05:34:53.254Z,99.90
2022-11-13T05:37:21.024Z,99.90
2022-11-13T05:39:48.802Z,99.90
2022-11-13T05:42:16.542Z,99.90
2022-11-13T05:44:44.312Z,99.90
2022-11-13T05:47:12.053Z,99.90
2022-11-13T05:49:39.835Z,99.90
2022-11-13T05:52:08.977Z,99.90
2022-11-13T05:54:37.008Z,99.90
2022-11-13T05:57:04.907Z,99.90
2022-11-13T05:59:32.736Z,99.90
2022-11-13T06:02:00.513Z,99.90
2022-11-13T06:04:28.310Z,99.90
2022-11-13T06:06:56.100Z,99.90
2022-11-13T06:09:25.288Z,99.90
2022-11-13T06:11:53.062Z,99.90
2022-11-13T06:14:20.761Z,99.90
2022-11-13T06:16:48.548Z,99.90
2022-11-13T06:19:16.404Z,99.90
2022-11-13T06:21:44.476Z,99.90
2022-11-13T06:24:13.745Z,99.90
2022-11-13T06:26:42.920Z,99.90
2022-11-13T06:29:12.910Z,99.90
2022-11-13T06:31:40.875Z,99.90
2022-11-13T06:34:08.810Z,99.90
2022-11-13T06:36:37.956Z,99.90
2022-11-13T06:39:08.509Z,99.90
2022-11-13T06:41:36.361Z,99.90
2022-11-13T06:44:05.800Z,99.90
2022-11-13T06:46:33.597Z,99.90
2022-11-13T06:49:01.416Z,99.90
2022-11-13T06:51:31.087Z,99.90
2022-11-13T06:53:59.051Z,99.90
2022-11-13T06:56:27.223Z,99.90
2022-11-13T06:58:55.817Z,99.90
2022-11-13T07:01:26.159Z,99.90
2022-11-13T07:03:54.084Z,99.90
2022-11-13T07:06:24.106Z,99.90
2022-11-13T07:08:52.557Z,99.90
2022-11-13T07:11:21.948Z,99.90
2022-11-13T07:13:50.595Z,99.90
2022-11-13T07:16:18.925Z,99.90
2022-11-13T07:18:52.333Z,99.90
2022-11-13T07:21:20.789Z,99.90
2022-11-13T07:23:49.067Z,99.90
2022-11-13T07:26:17.153Z,99.00
2022-11-13T07:28:44.943Z,97.40
2022-11-13T07:31:14.394Z,95.80
2022-11-13T07:33:43.426Z,93.70
2022-11-13T07:36:12.585Z,94.00
2022-11-13T07:38:40.371Z,93.60
2022-11-13T07:41:08.646Z,93.40
2022-11-13T07:43:36.447Z,95.00
2022-11-13T07:46:04.275Z,94.50
2022-11-13T07:48:32.425Z,93.90
2022-11-13T07:51:02.289Z,93.30
2022-11-13T07:53:32.062Z,92.70
2022-11-13T07:56:02.608Z,92.00
2022-11-13T07:58:31.254Z,92.30
2022-11-13T08:01:04.238Z,91.70
2022-11-13T08:03:32.865Z,92.30
2022-11-13T08:06:05.494Z,92.70
2022-11-13T08:08:35.683Z,93.80
2022-11-13T08:11:07.247Z,95.00
2022-11-13T08:13:35.509Z,95.50
2022-11-13T08:16:04.079Z,95.20
2022-11-13T08:18:32.897Z,94.40
2022-11-13T08:21:03.649Z,94.90
2022-11-13T08:23:31.739Z,95.00
2022-11-13T08:26:05.447Z,95.20
2022-11-13T08:28:33.705Z,95.20
2022-11-13T08:31:01.964Z,95.60
2022-11-13T08:33:30.063Z,96.10
2022-11-13T08:35:59.640Z,96.10
2022-11-13T08:38:28.637Z,95.90
2022-11-13T08:41:03.218Z,95.80
2022-11-13T08:43:35.132Z,96.10
2022-11-13T08:46:03.815Z,95.70
2022-11-13T08:48:31.904Z,95.20
2022-11-13T08:50:59.930Z,94.70
2022-11-13T08:53:27.864Z,95.10
2022-11-13T08:55:55.708Z,95.70
2022-11-13T08:58:24.923Z,95.60
2022-11-13T09:00:52.687Z,95.40
2022-11-13T09:03:20.517Z,95.10
2022-11-13T09:05:50.648Z,95.10
2022-11-13T09:08:18.376Z,94.40
2022-11-13T09:10:46.233Z,94.80
2022-11-13T09:13:14.014Z,94.80
2022-11-13T09:15:43.097Z,94.60
2022-11-13T09:18:11.658Z,94.70
2022-11-13T09:20:39.382Z,94.20
2022-11-13T09:23:09.163Z,94.80
2022-11-13T09:25:38.433Z,94.80
2022-11-13T09:28:07.021Z,94.40
2022-11-13T09:30:34.996Z,94.90
2022-11-13T09:33:04.547Z,94.20
2022-11-13T09:35:36.757Z,94.20
2022-11-13T09:38:11.652Z,93.60
2022-11-13T09:40:44.813Z,92.60
2022-11-13T09:43:24.507Z,92.50
2022-11-13T09:45:55.688Z,93.00
2022-11-13T09:48:32.885Z,92.40
2022-11-13T09:51:04.514Z,91.90
2022-11-13T09:53:38.587Z,93.00
2022-11-13T09:56:28.744Z,93.30
2022-11-13T09:59:04.396Z,93.00
2022-11-13T10:01:48.974Z,91.80
2022-11-13T10:04:25.844Z,92.00
2022-11-13T10:07:04.897Z,92.60
2022-11-13T10:09:41.812Z,93.00
2022-11-13T10:12:13.790Z,93.70
2022-11-13T10:14:45.963Z,92.90
2022-11-13T10:17:17.665Z,92.50
2022-11-13T10:19:56.875Z,91.90
2022-11-13T10:22:33.439Z,91.90
2022-11-13T10:25:10.448Z,91.50
2022-11-13T10:27:38.787Z,91.70
2022-11-13T10:30:13.910Z,91.70
2022-11-13T10:32:41.699Z,91.70
2022-11-13T10:35:38.147Z,91.90
2022-11-13T10:38:08.935Z,91.70
2022-11-13T10:40:38.659Z,92.30
2022-11-13T10:43:08.301Z,92.30
2022-11-13T10:45:36.095Z,92.10
2022-11-13T10:48:05.150Z,92.00
2022-11-13T10:50:35.507Z,92.00
2022-11-13T10:53:03.395Z,91.00
2022-11-13T10:55:38.801Z,90.70
2022-11-13T10:58:14.851Z,90.90
2022-11-13T11:00:47.306Z,90.70
2022-11-13T11:03:17.047Z,90.10
2022-11-13T11:05:58.156Z,90.00
2022-11-13T11:08:31.781Z,89.00
2022-11-13T11:11:19.225Z,87.60
2022-11-13T11:13:47.442Z,85.70
2022-11-13T11:16:21.222Z,86.30
2022-11-13T11:18:54.380Z,84.60
2022-11-13T11:21:27.561Z,83.00
2022-11-13T11:24:03.957Z,83.70
2022-11-13T11:26:36.097Z,84.60
2022-11-13T11:29:14.207Z,82.80
2022-11-13T11:31:48.298Z,80.90
2022-11-13T11:34:21.457Z,81.80
2022-11-13T11:37:06.765Z,80.80
2022-11-13T11:39:39.240Z,81.00
2022-11-13T11:42:16.417Z,79.40
2022-11-13T11:44:55.781Z,78.40
2022-11-13T11:47:23.714Z,77.40
2022-11-13T11:49:51.657Z,75.70
2022-11-13T11:52:33.951Z,74.30
2022-11-13T11:55:15.512Z,71.90
2022-11-13T11:57:51.746Z,70.80
2022-11-13T12:00:21.161Z,70.50
2022-11-13T12:03:34.348Z,70.00
2022-11-13T12:06:11.999Z,67.50
2022-11-13T12:08:49.108Z,66.70
2022-11-13T12:11:25.584Z,66.50
2022-11-13T12:14:03.487Z,67.00
2022-11-13T12:16:38.887Z,65.50
2022-11-13T12:19:12.610Z,64.00
2022-11-13T12:21:49.486Z,62.90
2022-11-13T12:24:42.702Z,62.30
2022-11-13T12:27:22.497Z,59.70
2022-11-13T12:30:03.088Z,60.40
2022-11-13T12:32:43.540Z,58.60
2022-11-13T12:35:14.859Z,57.50
2022-11-13T12:37:49.136Z,56.30
2022-11-13T12:40:27.565Z,53.70
2022-11-13T12:43:08.295Z,51.80
2022-11-13T12:45:50.309Z,51.30
2022-11-13T12:48:33.637Z,50.60
2022-11-13T12:51:03.598Z,48.80
2022-11-13T12:53:34.843Z,47.20
2022-11-13T12:56:04.655Z,44.30
2022-11-13T12:58:33.736Z,43.70
2022-11-13T13:01:07.306Z,41.80
2022-11-13T13:03:50.709Z,41.50
2022-11-13T13:06:35.767Z,40.60
2022-11-13T13:09:28.315Z,40.40
2022-11-13T13:12:05.485Z,38.40
2022-11-13T13:15:02.534Z,38.30
2022-11-13T13:17:30.516Z,37.50
2022-11-13T13:20:00.190Z,37.10
2022-11-13T13:22:30.193Z,36.50
2022-11-13T13:25:03.661Z,35.80
2022-11-13T13:27:38.490Z,35.40
2022-11-13T13:30:21.420Z,35.40
2022-11-13T13:33:00.104Z,35.00
2022-11-13T13:35:33.838Z,34.50
2022-11-13T13:38:10.189Z,34.70
2022-11-13T13:40:53.775Z,33.50
2022-11-13T13:43:38.431Z,33.80
2022-11-13T13:46:13.833Z,33.80
2022-11-13T13:48:44.347Z,33.40
2022-11-13T13:51:20.902Z,33.80
2022-11-13T13:53:50.158Z,33.30
2022-11-13T13:56:18.706Z,33.90
2022-11-13T13:58:48.235Z,33.80
2022-11-13T14:01:26.480Z,34.50
2022-11-13T14:04:05.719Z,35.50
2022-11-13T14:06:34.182Z,35.90
2022-11-13T14:09:09.800Z,35.50
2022-11-13T14:11:37.535Z,35.60
2022-11-13T14:14:10.921Z,35.40
2022-11-13T14:16:48.690Z,36.90
2022-11-13T14:19:16.432Z,37.20
2022-11-13T14:21:45.448Z,37.80
2022-11-13T14:24:20.523Z,37.20
2022-11-13T14:26:48.892Z,37.80
2022-11-13T14:29:33.711Z,37.90
2022-11-13T14:32:06.642Z,38.20
2022-11-13T14:34:35.406Z,38.60
2022-11-13T14:37:17.974Z,38.60
2022-11-13T14:39:47.756Z,39.70
2022-11-13T14:42:19.466Z,40.20
2022-11-13T14:44:49.342Z,41.10
2022-11-13T14:47:26.087Z,41.90
2022-11-13T14:49:54.237Z,41.90
2022-11-13T14:52:26.671Z,42.60
2022-11-13T14:55:21.522Z,43.40
2022-11-13T14:57:49.823Z,44.60
2022-11-13T15:00:20.747Z,45.50
2022-11-13T15:02:48.508Z,46.20
2022-11-13T15:05:16.455Z,47.40
2022-11-13T15:07:46.719Z,48.30
2022-11-13T15:10:17.455Z,49.30
2022-11-13T15:12:45.295Z,50.00
2022-11-13T15:15:16.283Z,50.60
2022-11-13T15:17:46.277Z,51.30
2022-11-13T15:20:18.245Z,52.30
2022-11-13T15:22:46.091Z,53.50
2022-11-13T15:25:15.703Z,53.80
2022-11-13T15:27:43.878Z,54.50
2022-11-13T15:30:13.003Z,55.10
2022-11-13T15:32:41.014Z,56.40
2022-11-13T15:35:14.921Z,57.10
2022-11-13T15:37:42.746Z,57.60
2022-11-13T15:40:17.529Z,58.00
2022-11-13T15:42:46.590Z,59.30
2022-11-13T15:45:16.836Z,60.20
2022-11-13T15:47:44.812Z,60.40
2022-11-13T15:50:15.891Z,60.90
2022-11-13T15:52:47.097Z,61.40
2022-11-13T15:55:21.985Z,62.60
2022-11-13T15:57:50.480Z,62.80
2022-11-13T16:00:24.849Z,63.20
2022-11-13T16:02:55.561Z,62.90
2022-11-13T16:05:26.533Z,63.70
2022-11-13T16:07:54.639Z,64.30
2022-11-13T16:10:24.757Z,64.90
2022-11-13T16:12:52.751Z,65.50
2022-11-13T16:15:21.361Z,65.70
2022-11-13T16:17:52.858Z,66.40
2022-11-13T16:20:20.755Z,67.40
2022-11-13T16:22:50.095Z,68.90
2022-11-13T16:25:19.577Z,70.30
2022-11-13T16:27:47.891Z,71.20
2022-11-13T16:30:17.099Z,71.70
2022-11-13T16:32:44.894Z,73.10
2022-11-13T16:35:16.342Z,73.60
2022-11-13T16:37:44.632Z,74.00
2022-11-13T16:40:20.898Z,73.90
2022-11-13T16:42:49.023Z,74.70
2022-11-13T16:45:17.010Z,76.40
2022-11-13T16:47:44.938Z,77.60
2022-11-13T16:50:15.716Z,78.60
2022-11-13T16:52:43.566Z,80.10
2022-11-13T16:55:11.429Z,81.20
2022-11-13T16:57:41.189Z,82.60
2022-11-13T17:00:13.389Z,84.00
2022-11-13T17:02:41.793Z,85.00
2022-11-13T17:05:13.653Z,84.90
2022-11-13T17:07:41.485Z,86.20
2022-11-13T17:13:02.392Z,89.60
2022-11-13T17:15:30.634Z,90.30
2022-11-13T17:17:59.231Z,91.40
2022-11-13T17:20:27.709Z,91.90
2022-11-13T17:22:55.964Z,92.40
2022-11-13T17:25:26.409Z,93.00
2022-11-13T17:27:54.289Z,93.50
2022-11-13T17:30:23.789Z,93.70
2022-11-13T17:32:51.567Z,94.10
2022-11-13T17:35:19.326Z,94.40
2022-11-13T17:37:47.088Z,94.50
2022-11-13T17:40:14.889Z,94.80
2022-11-13T17:42:44.826Z,94.50
2022-11-13T17:45:12.568Z,94.60
2022-11-13T17:47:41.689Z,94.60
2022-11-13T17:50:09.899Z,95.00
2022-11-13T17:52:37.725Z,94.90
2022-11-13T17:55:12.744Z,95.10
2022-11-13T17:57:43.367Z,94.80
2022-11-13T18:00:13.917Z,94.80
2022-11-13T18:02:43.163Z,95.00
2022-11-13T18:05:10.920Z,95.30
2022-11-13T18:07:39.997Z,95.90
2022-11-13T18:10:09.179Z,96.50
2022-11-13T18:12:37.329Z,96.80
2022-11-13T18:15:05.675Z,96.90
2022-11-13T18:17:33.895Z,97.00
2022-11-13T18:20:03.288Z,97.80
2022-11-13T18:22:31.478Z,98.50
2022-11-13T18:24:59.245Z,98.90
2022-11-13T18:27:27.114Z,99.50
2022-11-13T18:29:55.127Z,99.70
2022-11-13T18:32:22.887Z,99.90
2022-11-13T18:34:52.625Z,99.90
2022-11-13T18:37:21.980Z,99.90
2022-11-13T18:39:50.185Z,99.90
2022-11-13T18:42:17.938Z,99.90
2022-11-13T18:44:45.672Z,99.90
2022-11-13T18:47:13.453Z,99.90
2022-11-13T18:49:41.217Z,99.90
2022-11-13T18:52:09.182Z,99.90
2022-11-13T18:54:38.285Z,99.90
2022-11-13T18:57:06.059Z,99.90
2022-11-13T18:59:34.224Z,99.90
2022-11-13T19:02:02.390Z,99.90
2022-11-13T19:04:30.265Z,99.90
2022-11-13T19:06:58.526Z,99.90
2022-11-13T19:09:26.419Z,99.90
2022-11-13T19:11:56.449Z,99.90
2022-11-13T19:14:24.202Z,99.90
2022-11-13T19:16:52.110Z,99.90
2022-11-13T19:19:21.568Z,99.90
2022-11-13T19:21:49.616Z,99.90
2022-11-13T19:24:17.759Z,99.90
2022-11-13T19:26:46.469Z,99.90
2022-11-13T19:29:15.644Z,99.90
2022-11-13T19:31:45.208Z,99.90
2022-11-13T19:34:13.346Z,99.90
2022-11-13T19:36:41.427Z,99.90
2022-11-13T19:39:09.647Z,99.90
2022-11-13T19:41:37.450Z,99.90
2022-11-13T19:44:06.421Z,99.90
2022-11-13T19:46:39.539Z,99.90
2022-11-13T19:49:07.960Z,99.90
2022-11-13T19:51:35.806Z,99.90
2022-11-13T19:54:03.805Z,99.90
2022-11-13T19:56:31.588Z,99.90
2022-11-13T19:58:59.353Z,99.50
2022-11-13T20:01:29.467Z,99.10
2022-11-13T20:04:00.884Z,98.30
2022-11-13T20:06:30.262Z,97.70
2022-11-13T20:08:59.567Z,97.20
2022-11-13T20:11:27.773Z,96.70
2022-11-13T20:13:58.198Z,96.30
2022-11-13T20:16:26.059Z,96.20
2022-11-13T20:18:59.156Z,95.30
2022-11-13T20:21:31.287Z,94.80
2022-11-13T20:24:00.527Z,94.30
2022-11-13T20:26:29.659Z,93.90
2022-11-13T20:28:57.603Z,93.60
2022-11-13T20:31:27.607Z,94.10
2022-11-13T20:33:56.844Z,93.30
2022-11-13T20:36:26.300Z,93.00
2022-11-13T20:38:56.809Z,92.50
2022-11-13T20:41:25.422Z,91.90
2022-11-13T20:43:55.607Z,91.80
2022-11-13T20:46:23.549Z,91.90
2022-11-13T20:48:51.627Z,92.80
2022-11-13T20:51:21.148Z,92.50
2022-11-13T20:53:50.890Z,91.20
2022-11-13T20:56:19.648Z,91.00
2022-11-13T20:58:47.695Z,92.40
2022-11-13T21:01:17.185Z,92.40
2022-11-13T21:03:46.144Z,93.10
2022-11-13T21:06:16.201Z,92.90
2022-11-13T21:08:44.676Z,92.70
2022-11-13T21:11:18.786Z,92.10
2022-11-13T21:13:48.875Z,92.30
2022-11-13T21:16:18.029Z,92.30
2022-11-13T21:18:46.246Z,91.90
2022-11-13T21:21:16.944Z,91.70
2022-11-13T21:23:44.687Z,91.40
2022-11-13T21:26:14.321Z,91.20
2022-11-13T21:28:44.053Z,90.40
2022-11-13T21:31:20.569Z,90.10
2022-11-13T21:33:49.200Z,90.10
2022-11-13T21:36:20.862Z,89.50
2022-11-13T21:38:52.439Z,88.40
2022-11-13T21:41:23.722Z,86.90
2022-11-13T21:43:56.782Z,86.90
2022-11-13T21:46:27.036Z,86.90
2022-11-13T21:48:59.873Z,87.60
2022-11-13T21:51:28.023Z,88.80
2022-11-13T21:53:55.929Z,89.00
2022-11-13T21:56:26.199Z,88.90
2022-11-13T21:58:55.622Z,86.90
2022-11-13T22:01:24.091Z,85.10
2022-11-13T22:03:52.361Z,84.40
2022-11-13T22:06:22.434Z,83.30
2022-11-13T22:08:56.537Z,83.00
2022-11-13T22:11:26.923Z,82.70
2022-11-13T22:13:55.381Z,81.90
2022-11-13T22:16:24.001Z,82.20
2022-11-13T22:18:54.669Z,82.00
2022-11-13T22:21:23.257Z,82.70
2022-11-13T22:23:51.445Z,82.70
2022-11-13T22:26:20.052Z,83.20
2022-11-13T22:28:50.023Z,85.40
2022-11-13T22:31:20.705Z,85.90
2022-11-13T22:33:52.496Z,88.10
2022-11-13T22:36:24.042Z,89.00
2022-11-13T22:38:51.829Z,88.00
2022-11-13T22:41:23.626Z,88.00
2022-11-13T22:43:54.894Z,86.70
2022-11-13T22:46:24.928Z,86.00
2022-11-13T22:48:54.393Z,84.80
2022-11-13T22:51:24.261Z,84.00
2022-11-13T22:53:54.105Z,84.00
2022-11-13T22:56:26.117Z,83.70
2022-11-13T22:58:56.756Z,82.80
2022-11-13T23:01:26.310Z,82.90
2022-11-13T23:03:55.126Z,83.10
2022-11-13T23:06:24.940Z,82.90
2022-11-13T23:08:52.863Z,83.00
2022-11-13T23:11:22.520Z,82.40
2022-11-13T23:13:52.127Z,82.10
2022-11-13T23:16:22.559Z,81.80
2022-11-13T23:18:51.201Z,82.30
2022-11-13T23:21:19.313Z,82.30
2022-11-13T23:23:47.243Z,82.30
2022-11-13T23:26:16.281Z,82.00
2022-11-13T23:28:44.233Z,82.10
2022-11-13T23:31:12.589Z,82.60
2022-11-13T23:33:41.699Z,82.60
2022-11-13T23:36:11.375Z,82.50
2022-11-13T23:38:39.261Z,82.90
2022-11-13T23:41:07.478Z,82.90
2022-11-13T23:44:07.237Z,83.00
2022-11-13T23:46:23.010Z,83.20
2022-11-13T23:48:52.144Z,83.90
2022-11-13T23:51:19.901Z,84.10
2022-11-13T23:53:47.715Z,84.40
2022-11-13T23:56:15.474Z,84.60
2022-11-13T23:58:43.247Z,84.60
